createdAt,value
2018-07-20T00:00:03.748Z,792.88
2018-07-20T00:00:07.955Z,792.89
2018-07-20T00:00:12.277Z,792.89
2018-07-20T00:00:16.380Z,792.86
2018-07-20T00:00:20.587Z,792.81
2018-07-20T00:00:24.898Z,792.83
2018-07-20T00:00:29.205Z,792.82
2018-07-20T00:00:33.404Z,792.84
2018-07-20T00:00:37.611Z,792.85
2018-07-20T00:00:41.813Z,792.8
2018-07-20T00:00:45.908Z,792.82
2018-07-20T00:00:50.014Z,792.79
2018-07-20T00:00:54.218Z,792.82
2018-07-20T00:00:58.425Z,792.77
2018-07-20T00:01:02.524Z,792.76
2018-07-20T00:01:06.517Z,792.77
2018-07-20T00:01:10.727Z,792.77
2018-07-20T00:01:15.032Z,792.77
2018-07-20T00:01:19.128Z,792.75
2018-07-20T00:01:23.221Z,792.75
2018-07-20T00:01:27.532Z,792.72
2018-07-20T00:01:31.896Z,792.73
2018-07-20T00:01:35.992Z,792.74
2018-07-20T00:01:40.303Z,792.72
2018-07-20T00:01:44.502Z,792.73
2018-07-20T00:01:48.819Z,792.71
2018-07-20T00:01:53.125Z,792.69
2018-07-20T00:01:57.476Z,792.66
2018-07-20T00:02:01.785Z,792.69
2018-07-20T00:02:05.987Z,792.65
2018-07-20T00:02:10.292Z,792.66
2018-07-20T00:02:14.599Z,792.62
2018-07-20T00:02:18.911Z,792.65
2018-07-20T00:02:23.110Z,792.65
2018-07-20T00:02:27.331Z,792.63
2018-07-20T00:02:31.647Z,792.64
2018-07-20T00:02:35.964Z,792.62
2018-07-20T00:02:40.279Z,792.62
2018-07-20T00:02:44.476Z,792.58
2018-07-20T00:02:48.585Z,792.6
2018-07-20T00:02:52.902Z,792.58
2018-07-20T00:02:57.104Z,792.58
2018-07-20T00:03:01.209Z,792.57
2018-07-20T00:03:05.426Z,792.56
2018-07-20T00:03:09.627Z,792.54
2018-07-20T00:03:13.826Z,792.53
2018-07-20T00:03:18.137Z,792.55
2018-07-20T00:03:22.339Z,792.52
2018-07-20T00:03:26.646Z,792.53
2018-07-20T00:03:30.745Z,792.51
2018-07-20T00:03:35.053Z,792.53
2018-07-20T00:03:39.251Z,792.51
2018-07-20T00:03:43.600Z,792.52
2018-07-20T00:03:47.809Z,792.51
2018-07-20T00:03:52.117Z,792.51
2018-07-20T00:03:56.218Z,792.5
2018-07-20T00:04:00.320Z,792.48
2018-07-20T00:04:04.632Z,792.48
2018-07-20T00:04:08.726Z,792.49
2018-07-20T00:04:12.923Z,792.5
2018-07-20T00:04:17.226Z,792.45
2018-07-20T00:04:21.534Z,792.5
2018-07-20T00:04:25.623Z,792.46
2018-07-20T00:04:29.838Z,792.47
2018-07-20T00:04:34.145Z,792.46
2018-07-20T00:04:38.131Z,792.46
2018-07-20T00:04:42.331Z,792.42
2018-07-20T00:04:46.539Z,792.43
2018-07-20T00:04:50.748Z,792.45
2018-07-20T00:04:55.057Z,792.43
2018-07-20T00:04:59.260Z,792.41
2018-07-20T00:05:03.353Z,792.41
2018-07-20T00:05:07.449Z,792.4
2018-07-20T00:05:11.546Z,792.43
2018-07-20T00:05:15.753Z,792.43
2018-07-20T00:05:19.846Z,792.41
2018-07-20T00:05:24.048Z,792.41
2018-07-20T00:05:28.247Z,792.41
2018-07-20T00:05:32.607Z,792.39
2018-07-20T00:05:36.813Z,792.38
2018-07-20T00:05:40.904Z,792.37
2018-07-20T00:05:45.218Z,792.36
2018-07-20T00:05:49.317Z,792.33
2018-07-20T00:05:53.529Z,792.33
2018-07-20T00:05:57.731Z,792.35
2018-07-20T00:06:01.932Z,792.37
2018-07-20T00:06:06.039Z,792.34
2018-07-20T00:06:10.133Z,792.35
2018-07-20T00:06:14.339Z,792.34
2018-07-20T00:06:18.646Z,792.29
2018-07-20T00:06:22.851Z,792.32
2018-07-20T00:06:27.159Z,792.32
2018-07-20T00:06:31.364Z,792.28
2018-07-20T00:06:35.673Z,792.3
2018-07-20T00:06:39.667Z,792.26
2018-07-20T00:06:43.974Z,792.28
2018-07-20T00:06:47.975Z,792.3
2018-07-20T00:06:52.283Z,792.31
2018-07-20T00:06:56.488Z,792.28
2018-07-20T00:07:00.799Z,792.24
2018-07-20T00:07:04.946Z,792.27
2018-07-20T00:07:09.051Z,792.27
2018-07-20T00:07:13.251Z,792.24
2018-07-20T00:07:17.342Z,792.26
2018-07-20T00:07:21.442Z,792.21
2018-07-20T00:07:25.645Z,792.25
2018-07-20T00:07:29.850Z,792.27
2018-07-20T00:07:34.052Z,792.19
2018-07-20T00:07:38.253Z,792.24
2018-07-20T00:07:42.457Z,792.25
2018-07-20T00:07:46.768Z,792.25
2018-07-20T00:07:50.859Z,792.21
2018-07-20T00:07:55.163Z,792.22
2018-07-20T00:07:59.534Z,792.26
2018-07-20T00:08:03.948Z,792.18
2018-07-20T00:08:08.201Z,792.25
2018-07-20T00:08:13.132Z,792.26
2018-07-20T00:08:17.314Z,792.21
2018-07-20T00:08:21.627Z,792.21
2018-07-20T00:08:25.827Z,792.22
2018-07-20T00:08:30.034Z,792.22
2018-07-20T00:08:34.339Z,792.24
2018-07-20T00:08:38.657Z,792.21
2018-07-20T00:08:42.878Z,792.21
2018-07-20T00:08:47.186Z,792.2
2018-07-20T00:08:51.497Z,792.17
2018-07-20T00:08:55.697Z,792.24
2018-07-20T00:08:59.900Z,792.21
2018-07-20T00:09:04.163Z,792.18
2018-07-20T00:09:08.154Z,792.15
2018-07-20T00:09:12.510Z,792.18
2018-07-20T00:09:16.834Z,792.21
2018-07-20T00:09:21.037Z,792.22
2018-07-20T00:09:25.254Z,792.18
2018-07-20T00:09:29.351Z,792.21
2018-07-20T00:09:33.556Z,792.23
2018-07-20T00:09:37.662Z,792.24
2018-07-20T00:09:41.871Z,792.24
2018-07-20T00:09:45.857Z,792.23
2018-07-20T00:09:49.953Z,792.24
2018-07-20T00:09:54.275Z,792.22
2018-07-20T00:09:58.479Z,792.22
2018-07-20T00:10:02.580Z,792.18
2018-07-20T00:10:06.699Z,792.22
2018-07-20T00:10:10.901Z,792.24
2018-07-20T00:10:15.102Z,792.23
2018-07-20T00:10:19.309Z,792.26
2018-07-20T00:10:23.514Z,792.24
2018-07-20T00:10:27.830Z,792.23
2018-07-20T00:10:32.142Z,792.25
2018-07-20T00:10:36.346Z,792.25
2018-07-20T00:10:40.448Z,792.26
2018-07-20T00:10:44.653Z,792.26
2018-07-20T00:10:48.973Z,792.28
2018-07-20T00:10:53.281Z,792.24
2018-07-20T00:10:57.279Z,792.24
2018-07-20T00:11:01.599Z,792.26
2018-07-20T00:11:05.698Z,792.26
2018-07-20T00:11:10.007Z,792.26
2018-07-20T00:11:14.320Z,792.27
2018-07-20T00:11:18.525Z,792.27
2018-07-20T00:11:22.843Z,792.29
2018-07-20T00:11:27.063Z,792.27
2018-07-20T00:11:31.267Z,792.28
2018-07-20T00:11:35.573Z,792.28
2018-07-20T00:11:39.770Z,792.31
2018-07-20T00:11:44.081Z,792.32
2018-07-20T00:11:48.390Z,792.29
2018-07-20T00:11:52.599Z,792.35
2018-07-20T00:11:56.923Z,792.34
2018-07-20T00:12:01.130Z,792.32
2018-07-20T00:12:05.115Z,792.36
2018-07-20T00:12:09.311Z,792.38
2018-07-20T00:12:13.621Z,792.39
2018-07-20T00:12:17.939Z,792.39
2018-07-20T00:12:22.248Z,792.38
2018-07-20T00:12:26.454Z,792.38
2018-07-20T00:12:30.654Z,792.39
2018-07-20T00:12:34.959Z,792.37
2018-07-20T00:12:38.948Z,792.43
2018-07-20T00:12:43.253Z,792.38
2018-07-20T00:12:47.453Z,792.4
2018-07-20T00:12:51.654Z,792.4
2018-07-20T00:12:55.755Z,792.41
2018-07-20T00:12:59.848Z,792.43
2018-07-20T00:13:04.172Z,792.4
2018-07-20T00:13:08.378Z,792.38
2018-07-20T00:13:12.585Z,792.4
2018-07-20T00:13:16.844Z,792.46
2018-07-20T00:13:21.156Z,792.49
2018-07-20T00:13:25.358Z,792.48
2018-07-20T00:13:29.562Z,792.47
2018-07-20T00:13:33.872Z,792.5
2018-07-20T00:13:38.182Z,792.48
2018-07-20T00:13:42.487Z,792.5
2018-07-20T00:13:46.792Z,792.51
2018-07-20T00:13:51.109Z,792.51
2018-07-20T00:13:55.452Z,792.5
2018-07-20T00:13:59.770Z,792.49
2018-07-20T00:14:03.760Z,792.51
2018-07-20T00:14:07.967Z,792.47
2018-07-20T00:14:12.168Z,792.52
2018-07-20T00:14:16.472Z,792.54
2018-07-20T00:14:20.780Z,792.48
2018-07-20T00:14:24.980Z,792.52
2018-07-20T00:14:29.181Z,792.54
2018-07-20T00:14:33.380Z,792.55
2018-07-20T00:14:37.586Z,792.52
2018-07-20T00:14:41.679Z,792.51
2018-07-20T00:14:45.891Z,792.58
2018-07-20T00:14:50.099Z,792.53
2018-07-20T00:14:54.190Z,792.56
2018-07-20T00:14:58.505Z,792.57
2018-07-20T00:15:02.720Z,792.58
2018-07-20T00:15:06.931Z,792.58
2018-07-20T00:15:11.245Z,792.6
2018-07-20T00:15:15.340Z,792.55
2018-07-20T00:15:19.711Z,792.53
2018-07-20T00:15:23.808Z,792.55
2018-07-20T00:15:28.115Z,792.6
2018-07-20T00:15:32.418Z,792.53
2018-07-20T00:15:36.641Z,792.57
2018-07-20T00:15:40.947Z,792.56
2018-07-20T00:15:45.260Z,792.51
2018-07-20T00:15:49.350Z,792.56
2018-07-20T00:15:53.550Z,792.55
2018-07-20T00:15:57.862Z,792.5
2018-07-20T00:16:02.183Z,792.58
2018-07-20T00:16:06.286Z,792.59
2018-07-20T00:16:10.378Z,792.56
2018-07-20T00:16:14.593Z,792.59
2018-07-20T00:16:18.792Z,792.54
2018-07-20T00:16:23.104Z,792.55
2018-07-20T00:16:27.197Z,792.56
2018-07-20T00:16:31.396Z,792.56
2018-07-20T00:16:35.709Z,792.6
2018-07-20T00:16:40.116Z,792.57
2018-07-20T00:16:44.689Z,792.57
2018-07-20T00:16:49.080Z,792.54
2018-07-20T00:16:53.558Z,792.54
2018-07-20T00:16:57.777Z,792.52
2018-07-20T00:17:01.982Z,792.6
2018-07-20T00:17:05.977Z,792.57
2018-07-20T00:17:10.289Z,792.56
2018-07-20T00:17:14.490Z,792.59
2018-07-20T00:17:18.695Z,792.5
2018-07-20T00:17:22.902Z,792.57
2018-07-20T00:17:27.208Z,792.57
2018-07-20T00:17:31.419Z,792.57
2018-07-20T00:17:35.728Z,792.59
2018-07-20T00:17:39.824Z,792.55
2018-07-20T00:17:44.135Z,792.55
2018-07-20T00:17:48.343Z,792.58
2018-07-20T00:17:52.665Z,792.57
2018-07-20T00:17:56.652Z,792.55
2018-07-20T00:18:00.850Z,792.57
2018-07-20T00:18:05.103Z,792.57
2018-07-20T00:18:09.305Z,792.56
2018-07-20T00:18:13.403Z,792.54
2018-07-20T00:18:17.601Z,792.58
2018-07-20T00:18:21.800Z,792.57
2018-07-20T00:18:26.111Z,792.54
2018-07-20T00:18:30.322Z,792.56
2018-07-20T00:18:34.554Z,792.56
2018-07-20T00:18:38.765Z,792.54
2018-07-20T00:18:42.967Z,792.55
2018-07-20T00:18:47.275Z,792.52
2018-07-20T00:18:51.486Z,792.52
2018-07-20T00:18:55.700Z,792.54
2018-07-20T00:19:00.020Z,792.52
2018-07-20T00:19:04.221Z,792.55
2018-07-20T00:19:08.343Z,792.52
2018-07-20T00:19:12.651Z,792.54
2018-07-20T00:19:16.959Z,792.51
2018-07-20T00:19:21.166Z,792.54
2018-07-20T00:19:25.268Z,792.52
2018-07-20T00:19:29.043Z,792.53
2018-07-20T00:19:33.243Z,792.51
2018-07-20T00:19:37.444Z,792.54
2018-07-20T00:19:41.653Z,792.55
2018-07-20T00:19:45.856Z,792.51
2018-07-20T00:19:50.057Z,792.53
2018-07-20T00:19:54.371Z,792.45
2018-07-20T00:19:58.578Z,792.52
2018-07-20T00:20:02.986Z,792.51
2018-07-20T00:20:06.980Z,792.52
2018-07-20T00:20:10.974Z,792.51
2018-07-20T00:20:15.287Z,792.53
2018-07-20T00:20:19.290Z,792.49
2018-07-20T00:20:23.390Z,792.53
2018-07-20T00:20:27.591Z,792.51
2018-07-20T00:20:31.905Z,792.56
2018-07-20T00:20:36.110Z,792.53
2018-07-20T00:20:40.314Z,792.5
2018-07-20T00:20:44.631Z,792.54
2018-07-20T00:20:48.947Z,792.54
2018-07-20T00:20:53.054Z,792.5
2018-07-20T00:20:57.149Z,792.52
2018-07-20T00:21:01.347Z,792.53
2018-07-20T00:21:05.551Z,792.52
2018-07-20T00:21:09.328Z,792.53
2018-07-20T00:21:13.636Z,792.51
2018-07-20T00:21:17.838Z,792.57
2018-07-20T00:21:22.038Z,792.54
2018-07-20T00:21:26.240Z,792.52
2018-07-20T00:21:30.557Z,792.56
2018-07-20T00:21:34.757Z,792.58
2018-07-20T00:21:38.956Z,792.54
2018-07-20T00:21:43.160Z,792.51
2018-07-20T00:21:47.360Z,792.51
2018-07-20T00:21:51.564Z,792.54
2018-07-20T00:21:55.874Z,792.55
2018-07-20T00:22:00.078Z,792.55
2018-07-20T00:22:04.369Z,792.52
2018-07-20T00:22:08.652Z,792.56
2018-07-20T00:22:13.199Z,792.54
2018-07-20T00:22:17.886Z,792.54
2018-07-20T00:22:22.197Z,792.52
2018-07-20T00:22:26.299Z,792.53
2018-07-20T00:22:30.606Z,792.55
2018-07-20T00:22:34.703Z,792.55
2018-07-20T00:22:39.010Z,792.54
2018-07-20T00:22:43.210Z,792.57
2018-07-20T00:22:47.410Z,792.55
2018-07-20T00:22:51.504Z,792.55
2018-07-20T00:22:55.758Z,792.56
2018-07-20T00:22:59.965Z,792.55
2018-07-20T00:23:03.952Z,792.56
2018-07-20T00:23:08.090Z,792.54
2018-07-20T00:23:12.293Z,792.55
2018-07-20T00:23:16.492Z,792.54
2018-07-20T00:23:20.701Z,792.56
2018-07-20T00:23:24.697Z,792.53
2018-07-20T00:23:29.004Z,792.57
2018-07-20T00:23:33.311Z,792.58
2018-07-20T00:23:37.526Z,792.59
2018-07-20T00:23:41.731Z,792.57
2018-07-20T00:23:45.941Z,792.52
2018-07-20T00:23:50.141Z,792.52
2018-07-20T00:23:54.343Z,792.53
2018-07-20T00:23:58.543Z,792.57
2018-07-20T00:24:02.851Z,792.56
2018-07-20T00:24:06.734Z,792.57
2018-07-20T00:24:10.939Z,792.59
2018-07-20T00:24:15.142Z,792.57
2018-07-20T00:24:19.343Z,792.57
2018-07-20T00:24:23.337Z,792.56
2018-07-20T00:24:27.538Z,792.59
2018-07-20T00:24:31.850Z,792.56
2018-07-20T00:24:36.057Z,792.56
2018-07-20T00:24:40.261Z,792.59
2018-07-20T00:24:44.357Z,792.57
2018-07-20T00:24:48.671Z,792.53
2018-07-20T00:24:52.878Z,792.56
2018-07-20T00:24:56.986Z,792.57
2018-07-20T00:25:01.292Z,792.56
2018-07-20T00:25:05.395Z,792.6
2018-07-20T00:25:09.490Z,792.59
2018-07-20T00:25:13.697Z,792.56
2018-07-20T00:25:17.910Z,792.57
2018-07-20T00:25:22.110Z,792.52
2018-07-20T00:25:26.207Z,792.54
2018-07-20T00:25:30.409Z,792.58
2018-07-20T00:25:34.516Z,792.6
2018-07-20T00:25:38.865Z,792.59
2018-07-20T00:25:43.177Z,792.58
2018-07-20T00:25:47.273Z,792.54
2018-07-20T00:25:51.475Z,792.6
2018-07-20T00:25:55.786Z,792.6
2018-07-20T00:25:59.881Z,792.56
2018-07-20T00:26:03.881Z,792.57
2018-07-20T00:26:08.192Z,792.61
2018-07-20T00:26:12.395Z,792.63
2018-07-20T00:26:16.489Z,792.6
2018-07-20T00:26:20.798Z,792.62
2018-07-20T00:26:25.157Z,792.63
2018-07-20T00:26:29.248Z,792.6
2018-07-20T00:26:33.358Z,792.57
2018-07-20T00:26:37.666Z,792.61
2018-07-20T00:26:42.021Z,792.62
2018-07-20T00:26:46.330Z,792.64
2018-07-20T00:26:50.527Z,792.57
2018-07-20T00:26:54.843Z,792.63
2018-07-20T00:26:59.055Z,792.57
2018-07-20T00:27:03.264Z,792.64
2018-07-20T00:27:07.475Z,792.64
2018-07-20T00:27:11.781Z,792.66
2018-07-20T00:27:15.992Z,792.61
2018-07-20T00:27:20.087Z,792.62
2018-07-20T00:27:24.300Z,792.6
2018-07-20T00:27:28.291Z,792.61
2018-07-20T00:27:32.612Z,792.64
2018-07-20T00:27:36.921Z,792.6
2018-07-20T00:27:41.230Z,792.6
2018-07-20T00:27:45.441Z,792.57
2018-07-20T00:27:49.218Z,792.6
2018-07-20T00:27:53.529Z,792.57
2018-07-20T00:27:57.734Z,792.6
2018-07-20T00:28:01.830Z,792.6
2018-07-20T00:28:05.816Z,792.65
2018-07-20T00:28:10.023Z,792.63
2018-07-20T00:28:14.333Z,792.65
2018-07-20T00:28:18.653Z,792.61
2018-07-20T00:28:22.970Z,792.63
2018-07-20T00:28:27.275Z,792.64
2018-07-20T00:28:31.592Z,792.64
2018-07-20T00:28:35.901Z,792.61
2018-07-20T00:28:39.997Z,792.62
2018-07-20T00:28:44.308Z,792.66
2018-07-20T00:28:48.409Z,792.63
2018-07-20T00:28:52.505Z,792.63
2018-07-20T00:28:56.601Z,792.63
2018-07-20T00:29:00.797Z,792.64
2018-07-20T00:29:05.052Z,792.63
2018-07-20T00:29:09.363Z,792.67
2018-07-20T00:29:13.502Z,792.59
2018-07-20T00:29:17.704Z,792.64
2018-07-20T00:29:21.907Z,792.64
2018-07-20T00:29:26.111Z,792.67
2018-07-20T00:29:30.205Z,792.64
2018-07-20T00:29:34.521Z,792.66
2018-07-20T00:29:38.615Z,792.66
2018-07-20T00:29:42.928Z,792.67
2018-07-20T00:29:47.130Z,792.68
2018-07-20T00:29:51.444Z,792.64
2018-07-20T00:29:55.653Z,792.68
2018-07-20T00:29:59.861Z,792.67
2018-07-20T00:30:04.012Z,792.64
2018-07-20T00:30:08.004Z,792.65
2018-07-20T00:30:12.312Z,792.68
2018-07-20T00:30:16.610Z,792.62
2018-07-20T00:30:20.902Z,792.63
2018-07-20T00:30:25.376Z,792.68
2018-07-20T00:30:30.069Z,792.69
2018-07-20T00:30:34.123Z,792.7
2018-07-20T00:30:38.439Z,792.68
2018-07-20T00:30:42.544Z,792.73
2018-07-20T00:30:46.857Z,792.7
2018-07-20T00:30:51.173Z,792.69
2018-07-20T00:30:55.478Z,792.71
2018-07-20T00:30:59.799Z,792.68
2018-07-20T00:31:03.787Z,792.71
2018-07-20T00:31:08.102Z,792.67
2018-07-20T00:31:12.197Z,792.71
2018-07-20T00:31:16.295Z,792.69
2018-07-20T00:31:20.606Z,792.74
2018-07-20T00:31:24.813Z,792.74
2018-07-20T00:31:28.915Z,792.69
2018-07-20T00:31:33.225Z,792.76
2018-07-20T00:31:37.534Z,792.75
2018-07-20T00:31:41.732Z,792.71
2018-07-20T00:31:45.934Z,792.74
2018-07-20T00:31:50.159Z,792.75
2018-07-20T00:31:54.468Z,792.75
2018-07-20T00:31:58.668Z,792.73
2018-07-20T00:32:02.767Z,792.73
2018-07-20T00:32:06.864Z,792.75
2018-07-20T00:32:11.071Z,792.73
2018-07-20T00:32:15.272Z,792.72
2018-07-20T00:32:19.584Z,792.77
2018-07-20T00:32:23.904Z,792.77
2018-07-20T00:32:28.010Z,792.76
2018-07-20T00:32:32.208Z,792.77
2018-07-20T00:32:36.528Z,792.79
2018-07-20T00:32:40.728Z,792.79
2018-07-20T00:32:45.036Z,792.75
2018-07-20T00:32:49.382Z,792.81
2018-07-20T00:32:53.586Z,792.8
2018-07-20T00:32:57.793Z,792.8
2018-07-20T00:33:01.994Z,792.82
2018-07-20T00:33:06.093Z,792.82
2018-07-20T00:33:10.295Z,792.85
2018-07-20T00:33:14.179Z,792.8
2018-07-20T00:33:18.172Z,792.85
2018-07-20T00:33:22.371Z,792.87
2018-07-20T00:33:26.585Z,792.83
2018-07-20T00:33:30.896Z,792.86
2018-07-20T00:33:35.206Z,792.85
2018-07-20T00:33:39.521Z,792.88
2018-07-20T00:33:43.831Z,792.86
2018-07-20T00:33:47.929Z,792.8
2018-07-20T00:33:52.134Z,792.87
2018-07-20T00:33:56.447Z,792.88
2018-07-20T00:34:00.763Z,792.89
2018-07-20T00:34:04.763Z,792.87
2018-07-20T00:34:08.964Z,792.86
2018-07-20T00:34:13.273Z,792.89
2018-07-20T00:34:17.590Z,792.91
2018-07-20T00:34:21.790Z,792.88
2018-07-20T00:34:25.886Z,792.88
2018-07-20T00:34:30.092Z,792.9
2018-07-20T00:34:34.293Z,792.9
2018-07-20T00:34:38.604Z,792.91
2018-07-20T00:34:42.700Z,792.89
2018-07-20T00:34:47.003Z,792.89
2018-07-20T00:34:51.313Z,792.92
2018-07-20T00:34:55.520Z,792.92
2018-07-20T00:34:59.836Z,792.91
2018-07-20T00:35:03.931Z,792.9
2018-07-20T00:35:07.920Z,792.94
2018-07-20T00:35:12.134Z,792.93
2018-07-20T00:35:16.330Z,792.93
2018-07-20T00:35:20.639Z,792.93
2018-07-20T00:35:24.847Z,792.93
2018-07-20T00:35:29.154Z,792.93
2018-07-20T00:35:33.357Z,792.87
2018-07-20T00:35:37.563Z,792.92
2018-07-20T00:35:41.772Z,792.91
2018-07-20T00:35:46.088Z,792.93
2018-07-20T00:35:50.286Z,792.92
2018-07-20T00:35:54.599Z,792.93
2018-07-20T00:35:58.947Z,792.92
2018-07-20T00:36:03.048Z,792.95
2018-07-20T00:36:07.146Z,792.95
2018-07-20T00:36:11.154Z,792.95
2018-07-20T00:36:15.249Z,792.96
2018-07-20T00:36:19.450Z,792.94
2018-07-20T00:36:23.665Z,792.98
2018-07-20T00:36:27.983Z,792.96
2018-07-20T00:36:32.182Z,792.95
2018-07-20T00:36:36.536Z,792.97
2018-07-20T00:36:40.854Z,792.97
2018-07-20T00:36:45.168Z,792.98
2018-07-20T00:36:49.272Z,792.99
2018-07-20T00:36:53.477Z,792.99
2018-07-20T00:36:57.679Z,792.98
2018-07-20T00:37:01.988Z,793
2018-07-20T00:37:05.975Z,793
2018-07-20T00:37:10.277Z,792.99
2018-07-20T00:37:14.478Z,793
2018-07-20T00:37:18.786Z,792.99
2018-07-20T00:37:22.876Z,793.03
2018-07-20T00:37:27.084Z,793.01
2018-07-20T00:37:31.386Z,792.96
2018-07-20T00:37:35.587Z,793.02
2018-07-20T00:37:39.787Z,793.02
2018-07-20T00:37:44.095Z,793.06
2018-07-20T00:37:48.082Z,793.05
2018-07-20T00:37:52.068Z,793.05
2018-07-20T00:37:56.156Z,793.07
2018-07-20T00:38:00.466Z,793.06
2018-07-20T00:38:04.776Z,793.08
2018-07-20T00:38:08.986Z,793.06
2018-07-20T00:38:13.087Z,793.08
2018-07-20T00:38:17.395Z,793.06
2018-07-20T00:38:21.601Z,793.07
2018-07-20T00:38:25.804Z,793.08
2018-07-20T00:38:30.020Z,793.08
2018-07-20T00:38:34.147Z,793.12
2018-07-20T00:38:38.353Z,793.11
2018-07-20T00:38:42.559Z,793.07
2018-07-20T00:38:46.762Z,793.07
2018-07-20T00:38:50.965Z,793.12
2018-07-20T00:38:55.064Z,793.1
2018-07-20T00:38:59.262Z,793.08
2018-07-20T00:39:03.358Z,793.1
2018-07-20T00:39:07.560Z,793.12
2018-07-20T00:39:11.877Z,793.1
2018-07-20T00:39:16.078Z,793.13
2018-07-20T00:39:20.407Z,793.11
2018-07-20T00:39:24.510Z,793.12
2018-07-20T00:39:28.505Z,793.08
2018-07-20T00:39:32.612Z,793.13
2018-07-20T00:39:36.809Z,793.14
2018-07-20T00:39:41.125Z,793.11
2018-07-20T00:39:45.429Z,793.08
2018-07-20T00:39:49.641Z,793.14
2018-07-20T00:39:53.839Z,793.15
2018-07-20T00:39:58.051Z,793.18
2018-07-20T00:40:02.315Z,793.15
2018-07-20T00:40:06.411Z,793.19
2018-07-20T00:40:10.509Z,793.18
2018-07-20T00:40:14.501Z,793.21
2018-07-20T00:40:18.595Z,793.16
2018-07-20T00:40:22.586Z,793.2
2018-07-20T00:40:26.788Z,793.18
2018-07-20T00:40:31.096Z,793.19
2018-07-20T00:40:35.414Z,793.2
2018-07-20T00:40:39.719Z,793.2
2018-07-20T00:40:44.029Z,793.2
2018-07-20T00:40:48.017Z,793.22
2018-07-20T00:40:52.217Z,793.22
2018-07-20T00:40:56.420Z,793.23
2018-07-20T00:41:00.630Z,793.23
2018-07-20T00:41:04.834Z,793.21
2018-07-20T00:41:09.047Z,793.22
2018-07-20T00:41:13.429Z,793.25
2018-07-20T00:41:17.695Z,793.26
2018-07-20T00:41:21.908Z,793.27
2018-07-20T00:41:26.110Z,793.24
2018-07-20T00:41:30.313Z,793.28
2018-07-20T00:41:34.626Z,793.25
2018-07-20T00:41:38.937Z,793.31
2018-07-20T00:41:43.247Z,793.3
2018-07-20T00:41:47.347Z,793.31
2018-07-20T00:41:51.660Z,793.31
2018-07-20T00:41:55.864Z,793.31
2018-07-20T00:41:59.973Z,793.32
2018-07-20T00:42:04.174Z,793.33
2018-07-20T00:42:08.273Z,793.33
2018-07-20T00:42:12.401Z,793.32
2018-07-20T00:42:16.708Z,793.35
2018-07-20T00:42:21.015Z,793.33
2018-07-20T00:42:25.109Z,793.37
2018-07-20T00:42:29.316Z,793.37
2018-07-20T00:42:33.627Z,793.39
2018-07-20T00:42:37.827Z,793.4
2018-07-20T00:42:42.035Z,793.38
2018-07-20T00:42:46.021Z,793.43
2018-07-20T00:42:50.115Z,793.4
2018-07-20T00:42:54.325Z,793.38
2018-07-20T00:42:58.421Z,793.41
2018-07-20T00:43:02.629Z,793.41
2018-07-20T00:43:06.626Z,793.44
2018-07-20T00:43:10.937Z,793.39
2018-07-20T00:43:15.145Z,793.42
2018-07-20T00:43:19.248Z,793.4
2018-07-20T00:43:23.552Z,793.45
2018-07-20T00:43:27.758Z,793.45
2018-07-20T00:43:31.965Z,793.47
2018-07-20T00:43:36.180Z,793.48
2018-07-20T00:43:40.383Z,793.46
2018-07-20T00:43:44.691Z,793.47
2018-07-20T00:43:48.790Z,793.48
2018-07-20T00:43:52.999Z,793.48
2018-07-20T00:43:57.203Z,793.5
2018-07-20T00:44:01.407Z,793.53
2018-07-20T00:44:05.511Z,793.5
2018-07-20T00:44:09.493Z,793.51
2018-07-20T00:44:13.593Z,793.53
2018-07-20T00:44:17.709Z,793.54
2018-07-20T00:44:22.018Z,793.53
2018-07-20T00:44:26.223Z,793.55
2018-07-20T00:44:30.317Z,793.55
2018-07-20T00:44:34.517Z,793.57
2018-07-20T00:44:38.837Z,793.58
2018-07-20T00:44:43.034Z,793.59
2018-07-20T00:44:47.235Z,793.61
2018-07-20T00:44:51.115Z,793.59
2018-07-20T00:44:55.418Z,793.62
2018-07-20T00:44:59.612Z,793.62
2018-07-20T00:45:03.709Z,793.61
2018-07-20T00:45:07.926Z,793.64
2018-07-20T00:45:12.130Z,793.6
2018-07-20T00:45:16.221Z,793.62
2018-07-20T00:45:20.431Z,793.67
2018-07-20T00:45:24.525Z,793.69
2018-07-20T00:45:28.730Z,793.68
2018-07-20T00:45:33.040Z,793.7
2018-07-20T00:45:37.241Z,793.73
2018-07-20T00:45:41.445Z,793.7
2018-07-20T00:45:45.539Z,793.72
2018-07-20T00:45:49.643Z,793.72
2018-07-20T00:45:53.858Z,793.71
2018-07-20T00:45:58.065Z,793.75
2018-07-20T00:46:02.265Z,793.72
2018-07-20T00:46:06.257Z,793.76
2018-07-20T00:46:10.466Z,793.76
2018-07-20T00:46:14.771Z,793.78
2018-07-20T00:46:19.081Z,793.79
2018-07-20T00:46:23.287Z,793.78
2018-07-20T00:46:27.496Z,793.81
2018-07-20T00:46:31.797Z,793.8
2018-07-20T00:46:36.000Z,793.79
2018-07-20T00:46:40.306Z,793.8
2018-07-20T00:46:44.613Z,793.83
2018-07-20T00:46:48.811Z,793.83
2018-07-20T00:46:53.011Z,793.88
2018-07-20T00:46:57.106Z,793.85
2018-07-20T00:47:01.428Z,793.86
2018-07-20T00:47:05.632Z,793.86
2018-07-20T00:47:09.836Z,793.9
2018-07-20T00:47:14.042Z,793.89
2018-07-20T00:47:18.367Z,793.89
2018-07-20T00:47:22.464Z,793.88
2018-07-20T00:47:26.666Z,793.87
2018-07-20T00:47:30.990Z,793.93
2018-07-20T00:47:35.300Z,793.9
2018-07-20T00:47:39.401Z,793.93
2018-07-20T00:47:43.717Z,793.9
2018-07-20T00:47:48.031Z,793.94
2018-07-20T00:47:52.065Z,793.95
2018-07-20T00:47:56.377Z,793.95
2018-07-20T00:48:00.690Z,793.96
2018-07-20T00:48:04.893Z,793.95
2018-07-20T00:48:08.775Z,793.97
2018-07-20T00:48:12.986Z,793.94
2018-07-20T00:48:17.083Z,793.99
2018-07-20T00:48:21.287Z,793.97
2018-07-20T00:48:25.597Z,793.98
2018-07-20T00:48:29.708Z,793.96
2018-07-20T00:48:33.915Z,793.94
2018-07-20T00:48:38.113Z,793.94
2018-07-20T00:48:42.429Z,793.98
2018-07-20T00:48:46.744Z,793.99
2018-07-20T00:48:50.959Z,794.01
2018-07-20T00:48:55.156Z,794.03
2018-07-20T00:48:59.252Z,794
2018-07-20T00:49:03.347Z,794
2018-07-20T00:49:07.699Z,794.03
2018-07-20T00:49:11.792Z,794.04
2018-07-20T00:49:16.112Z,794.05
2018-07-20T00:49:20.422Z,794.04
2018-07-20T00:49:24.620Z,794.05
2018-07-20T00:49:28.845Z,794.04
2018-07-20T00:49:33.217Z,794.07
2018-07-20T00:49:37.424Z,794.07
2018-07-20T00:49:41.632Z,794.05
2018-07-20T00:49:45.836Z,794.07
2018-07-20T00:49:50.144Z,794.07
2018-07-20T00:49:54.451Z,794.06
2018-07-20T00:49:58.540Z,794.1
2018-07-20T00:50:02.744Z,794.11
2018-07-20T00:50:06.734Z,794.08
2018-07-20T00:50:10.937Z,794.11
2018-07-20T00:50:15.249Z,794.11
2018-07-20T00:50:19.447Z,794.1
2018-07-20T00:50:23.649Z,794.11
2018-07-20T00:50:27.853Z,794.12
2018-07-20T00:50:31.950Z,794.12
2018-07-20T00:50:36.202Z,794.12
2018-07-20T00:50:40.515Z,794.11
2018-07-20T00:50:44.718Z,794.13
2018-07-20T00:50:48.922Z,794.1
2018-07-20T00:50:52.911Z,794.12
2018-07-20T00:50:57.220Z,794.13
2018-07-20T00:51:01.529Z,794.15
2018-07-20T00:51:05.526Z,794.13
2018-07-20T00:51:09.830Z,794.09
2018-07-20T00:51:14.140Z,794.15
2018-07-20T00:51:18.458Z,794.15
2018-07-20T00:51:22.665Z,794.15
2018-07-20T00:51:26.866Z,794.14
2018-07-20T00:51:30.852Z,794.16
2018-07-20T00:51:35.054Z,794.15
2018-07-20T00:51:39.257Z,794.15
2018-07-20T00:51:43.460Z,794.16
2018-07-20T00:51:47.769Z,794.18
2018-07-20T00:51:52.072Z,794.17
2018-07-20T00:51:56.271Z,794.18
2018-07-20T00:52:00.475Z,794.17
2018-07-20T00:52:04.573Z,794.13
2018-07-20T00:52:08.679Z,794.16
2018-07-20T00:52:12.994Z,794.2
2018-07-20T00:52:17.308Z,794.2
2018-07-20T00:52:21.621Z,794.15
2018-07-20T00:52:25.925Z,794.17
2018-07-20T00:52:30.132Z,794.22
2018-07-20T00:52:34.235Z,794.23
2018-07-20T00:52:38.447Z,794.16
2018-07-20T00:52:42.758Z,794.21
2018-07-20T00:52:46.956Z,794.24